Time;durP1;ratioP1;P1;durP2;ratioP2;P2;SDS_P1;SDS_P2;PMS_P1;PMS_P2;Temp;Humidity;BMP_temperature;BMP_pressure;BME280_temperature;BME280_humidity;BME280_pressure;Samples;Min_cycle;Max_cycle;Signal;HPM_P1;HPM_P2
2023/07/16 00:02:23;;;;;;;4.87;1.50;;;17.90;1.00;;;;;;5076311;28;20183;-41
2023/07/16 00:04:49;;;;;;;6.20;1.50;;;17.90;1.00;;;;;;5076203;28;20736;-43
2023/07/16 00:07:14;;;;;;;13.53;1.93;;;17.90;1.00;;;;;;5074928;28;20195;-43
2023/07/16 00:09:40;;;;;;;2.60;1.60;;;17.80;1.00;;;;;;5076069;28;20214;-44
2023/07/16 00:12:06;;;;;;;4.77;1.50;;;17.80;1.00;;;;;;5076310;28;20215;-42
2023/07/16 00:14:31;;;;;;;7.17;1.53;;;17.80;1.00;;;;;;5076481;28;20203;-42
2023/07/16 00:16:58;;;;;;;5.60;2.27;;;17.80;1.00;;;;;;5076079;28;20317;-42
2023/07/16 00:19:23;;;;;;;10.33;1.67;;;17.80;1.00;;;;;;5075975;28;20191;-43
2023/07/16 00:21:49;;;;;;;4.33;1.40;;;17.80;1.00;;;;;;5076694;28;20183;-42
2023/07/16 00:24:14;;;;;;;3.27;1.63;;;17.70;1.00;;;;;;5075943;28;20550;-45
2023/07/16 00:26:40;;;;;;;5.40;1.50;;;17.70;1.00;;;;;;5075796;28;20280;-45
2023/07/16 00:29:05;;;;;;;6.60;1.60;;;17.70;1.00;;;;;;5076142;28;20186;-43
2023/07/16 00:31:31;;;;;;;9.43;1.87;;;17.70;1.00;;;;;;5076011;28;20211;-39
2023/07/16 00:33:57;;;;;;;4.40;1.50;;;17.70;1.00;;;;;;5075702;28;20230;-44
2023/07/16 00:36:22;;;;;;;7.67;1.50;;;17.70;1.00;;;;;;5076162;28;20227;-43
2023/07/16 00:38:48;;;;;;;7.03;2.17;;;17.70;1.00;;;;;;5075675;28;20628;-42
2023/07/16 00:41:14;;;;;;;5.30;1.43;;;17.60;1.00;;;;;;5075817;28;20205;-42
2023/07/16 00:43:40;;;;;;;4.00;1.47;;;17.60;1.00;;;;;;5075889;28;20558;-45
2023/07/16 00:46:06;;;;;;;4.27;1.40;;;17.50;1.00;;;;;;5075732;28;20204;-42
2023/07/16 00:48:32;;;;;;;4.80;1.60;;;17.50;1.00;;;;;;5075541;28;20202;-42
2023/07/16 00:51:00;;;;;;;5.87;1.90;;;17.50;1.00;;;;;;5074909;28;20711;-44
2023/07/16 00:53:25;;;;;;;5.70;1.63;;;17.40;1.00;;;;;;5075464;28;20179;-41
2023/07/16 00:55:51;;;;;;;11.03;1.70;;;17.40;1.00;;;;;;5075453;28;20270;-42
2023/07/16 00:58:17;;;;;;;5.00;1.47;;;17.30;1.00;;;;;;5075583;28;20179;-44
2023/07/16 01:00:43;;;;;;;5.90;1.60;;;17.30;1.00;;;;;;5075285;28;20175;-44
2023/07/16 01:03:13;;;;;;;5.63;1.83;;;17.30;1.00;;;;;;5075257;28;20249;-43
2023/07/16 01:06:19;;;;;;;7.60;1.50;;;17.30;1.00;;;;;;5075050;28;20199;-44
2023/07/16 01:08:49;;;;;;;4.83;1.50;;;17.20;1.00;;;;;;5074546;28;20758;-41
2023/07/16 01:11:15;;;;;;;8.93;1.50;;;17.20;1.00;;;;;;5075093;28;20229;-42
2023/07/16 01:13:42;;;;;;;6.23;1.50;;;17.20;1.00;;;;;;5075044;28;20540;-42
2023/07/16 01:16:21;;;;;;;7.77;2.13;;;17.10;1.00;;;;;;5075116;28;20199;-43
2023/07/16 01:18:47;;;;;;;6.10;2.10;;;17.10;1.00;;;;;;5075190;28;20251;-44
2023/07/16 01:21:14;;;;;;;7.83;1.53;;;17.10;1.00;;;;;;5075250;28;20183;-43
2023/07/16 01:24:25;;;;;;;8.60;2.03;;;17.00;1.00;;;;;;5075382;28;20202;-43
2023/07/16 01:26:56;;;;;;;9.70;1.70;;;17.00;1.00;;;;;;5074787;28;20218;-42
2023/07/16 01:30:03;;;;;;;7.00;1.90;;;17.00;1.00;;;;;;5074947;28;20179;-43
2023/07/16 01:32:33;;;;;;;7.50;2.17;;;17.00;1.00;;;;;;5074217;28;20219;-43
2023/07/16 01:34:59;;;;;;;8.13;1.57;;;17.00;1.00;;;;;;5074597;28;20270;-43
2023/07/16 01:37:25;;;;;;;9.17;1.47;;;17.00;1.00;;;;;;5074811;28;20183;-42
2023/07/16 01:39:51;;;;;;;8.07;1.90;;;17.00;1.00;;;;;;5074675;28;20187;-43
2023/07/16 01:42:16;;;;;;;4.63;1.80;;;17.00;1.00;;;;;;5073202;28;20191;-41
2023/07/16 01:44:42;;;;;;;7.60;1.40;;;17.00;1.00;;;;;;5074590;28;20179;-41
2023/07/16 01:47:35;;;;;;;11.27;1.67;;;17.00;1.00;;;;;;5074303;28;20193;-42
2023/07/16 01:50:00;;;;;;;5.53;1.77;;;17.00;1.00;;;;;;5074972;28;20222;-45
2023/07/16 01:52:26;;;;;;;6.50;1.53;;;17.00;1.00;;;;;;5074474;28;20215;-43
2023/07/16 01:54:52;;;;;;;6.50;1.77;;;16.90;1.00;;;;;;5074129;28;20196;-41
2023/07/16 01:57:17;;;;;;;4.00;1.50;;;16.90;1.00;;;;;;5074074;28;20182;-41
2023/07/16 01:59:43;;;;;;;6.27;1.50;;;16.90;1.00;;;;;;5074085;28;20203;-43
2023/07/16 02:02:08;;;;;;;7.23;1.57;;;16.90;1.00;;;;;;5074347;28;20203;-43
2023/07/16 02:04:34;;;;;;;6.63;1.80;;;16.90;1.00;;;;;;5074073;28;20176;-41
2023/07/16 02:06:59;;;;;;;6.17;1.93;;;16.90;1.00;;;;;;5072652;28;20183;-43
2023/07/16 02:09:25;;;;;;;5.20;1.30;;;16.90;1.00;;;;;;5073792;28;20229;-42
2023/07/16 02:11:51;;;;;;;4.13;1.80;;;16.90;1.00;;;;;;5073775;28;20195;-43
2023/07/16 02:14:17;;;;;;;8.27;1.90;;;16.80;1.00;;;;;;5074394;28;20182;-41
2023/07/16 02:16:43;;;;;;;3.93;1.77;;;16.80;1.00;;;;;;5073740;28;20623;-42
2023/07/16 02:19:09;;;;;;;5.30;1.40;;;16.80;1.00;;;;;;5073741;28;20195;-45
2023/07/16 02:21:34;;;;;;;7.40;1.60;;;16.80;1.00;;;;;;5072882;28;20164;-43
2023/07/16 02:24:00;;;;;;;4.10;1.30;;;16.70;1.00;;;;;;5073672;28;20186;-43
2023/07/16 02:26:26;;;;;;;5.50;1.40;;;16.70;1.00;;;;;;5073555;28;20202;-43
2023/07/16 02:28:51;;;;;;;7.33;2.17;;;16.70;1.00;;;;;;5074125;28;20211;-42
2023/07/16 02:31:17;;;;;;;4.73;1.50;;;16.60;1.00;;;;;;5073787;28;20333;-43
2023/07/16 02:33:42;;;;;;;5.67;1.27;;;16.60;1.00;;;;;;5073798;28;20647;-42
2023/07/16 02:36:08;;;;;;;8.17;1.73;;;16.60;1.00;;;;;;5073546;28;20253;-41
2023/07/16 02:38:34;;;;;;;6.43;1.63;;;16.50;1.00;;;;;;5074068;28;20176;-40
2023/07/16 02:40:59;;;;;;;6.33;1.73;;;16.50;1.00;;;;;;5074131;28;20183;-44
2023/07/16 02:43:25;;;;;;;10.10;1.77;;;16.50;1.00;;;;;;5074463;28;20175;-40
2023/07/16 02:45:50;;;;;;;3.43;1.30;;;16.40;1.00;;;;;;5073989;28;20203;-43
2023/07/16 02:48:16;;;;;;;8.03;1.40;;;16.40;1.00;;;;;;5073475;28;20313;-42
2023/07/16 02:50:41;;;;;;;6.93;1.70;;;16.30;1.00;;;;;;5073355;28;20175;-42
2023/07/16 02:53:08;;;;;;;10.20;2.30;;;16.30;1.00;;;;;;5072511;28;20190;-43
2023/07/16 02:55:35;;;;;;;5.67;1.83;;;16.30;1.00;;;;;;5073486;28;20191;-43
2023/07/16 02:58:04;;;;;;;7.83;2.10;;;16.20;1.00;;;;;;5073277;28;20187;-42
2023/07/16 03:00:33;;;;;;;4.47;1.97;;;16.20;1.00;;;;;;5073835;28;20171;-43
2023/07/16 03:02:59;;;;;;;6.17;1.97;;;16.10;1.00;;;;;;5073391;28;20187;-43
2023/07/16 03:05:26;;;;;;;9.23;1.70;;;16.10;1.00;;;;;;5073311;28;20196;-42
2023/07/16 03:07:51;;;;;;;5.83;1.80;;;16.10;1.00;;;;;;5073212;28;20175;-43
2023/07/16 03:10:17;;;;;;;5.37;2.23;;;16.00;1.00;;;;;;5073156;28;20195;-42
2023/07/16 03:12:43;;;;;;;7.90;1.70;;;16.00;1.00;;;;;;5073103;28;20203;-42
2023/07/16 03:15:09;;;;;;;3.57;1.43;;;16.00;1.00;;;;;;5073618;28;20196;-43
2023/07/16 03:17:35;;;;;;;3.50;1.40;;;16.00;1.00;;;;;;5073070;28;20272;-41
2023/07/16 03:20:00;;;;;;;5.33;1.90;;;15.90;1.00;;;;;;5073074;28;20211;-43
2023/07/16 03:22:26;;;;;;;8.10;1.80;;;15.90;1.00;;;;;;5073204;28;20203;-43
2023/07/16 03:24:52;;;;;;;5.43;2.00;;;15.90;1.00;;;;;;5073214;28;20239;-42
2023/07/16 03:27:17;;;;;;;6.80;1.90;;;15.80;1.00;;;;;;5071910;28;20179;-41
2023/07/16 03:29:43;;;;;;;6.13;1.50;;;15.90;1.00;;;;;;5071673;28;20208;-42
2023/07/16 03:32:08;;;;;;;7.77;2.37;;;15.90;1.00;;;;;;5073790;28;20237;-44
2023/07/16 03:34:34;;;;;;;5.97;2.33;;;15.80;1.00;;;;;;5075579;28;20535;-41
2023/07/16 03:36:59;;;;;;;3.00;1.63;;;15.80;1.00;;;;;;5076874;28;20259;-43
2023/07/16 03:39:25;;;;;;;6.40;1.67;;;15.70;1.00;;;;;;5077142;28;20221;-42
2023/07/16 03:41:50;;;;;;;6.33;2.03;;;15.80;1.00;;;;;;5076758;28;20179;-43
2023/07/16 03:44:16;;;;;;;7.47;1.90;;;15.70;1.00;;;;;;5076996;28;20237;-42
2023/07/16 03:46:42;;;;;;;5.97;1.80;;;15.70;1.00;;;;;;5076649;28;20226;-43
2023/07/16 03:49:08;;;;;;;3.20;1.77;;;15.70;1.00;;;;;;5076686;28;20176;-43
2023/07/16 03:51:34;;;;;;;12.20;2.77;;;15.70;1.00;;;;;;5076791;28;20214;-43
2023/07/16 03:53:59;;;;;;;5.70;1.97;;;15.70;1.00;;;;;;5076602;28;20176;-43
2023/07/16 03:56:25;;;;;;;6.37;1.90;;;15.60;1.00;;;;;;5076450;28;20191;-42
2023/07/16 03:58:51;;;;;;;5.33;1.80;;;15.60;1.00;;;;;;5076490;28;20543;-43
2023/07/16 04:01:16;;;;;;;10.97;2.20;;;15.60;1.00;;;;;;5076920;28;20179;-43
2023/07/16 04:03:43;;;;;;;4.73;2.03;;;15.60;1.00;;;;;;5076698;28;20211;-40
2023/07/16 04:06:10;;;;;;;3.80;1.70;;;15.60;1.00;;;;;;5076349;28;20633;-42
2023/07/16 04:08:36;;;;;;;9.97;2.10;;;15.60;1.00;;;;;;5076447;28;20183;-42
2023/07/16 04:11:05;;;;;;;7.30;2.23;;;15.70;1.00;;;;;;5076261;28;20644;-42
2023/07/16 04:13:31;;;;;;;4.13;1.73;;;15.70;1.00;;;;;;5076467;28;20176;-43
2023/07/16 04:15:57;;;;;;;5.20;2.00;;;15.70;1.00;;;;;;5076071;28;20256;-42
2023/07/16 04:18:27;;;;;;;5.90;2.07;;;15.70;1.00;;;;;;5076456;28;20599;-41
2023/07/16 04:20:52;;;;;;;5.07;2.00;;;15.70;1.00;;;;;;5076096;28;20217;-40
2023/07/16 04:23:18;;;;;;;12.47;2.50;;;15.70;1.00;;;;;;5076036;28;20211;-42
2023/07/16 04:25:44;;;;;;;9.37;2.20;;;15.70;1.00;;;;;;5076122;28;20204;-43
2023/07/16 04:28:11;;;;;;;6.23;1.87;;;15.80;1.00;;;;;;5076022;28;20183;-41
2023/07/16 04:30:37;;;;;;;5.00;2.10;;;15.80;1.00;;;;;;5075841;28;20182;-43
2023/07/16 04:33:03;;;;;;;5.90;2.07;;;15.80;1.00;;;;;;5076201;28;20544;-42
2023/07/16 04:35:29;;;;;;;11.20;2.00;;;15.80;1.00;;;;;;5075804;28;20200;-44
2023/07/16 04:37:54;;;;;;;8.83;2.37;;;15.90;1.00;;;;;;5074575;28;20190;-42
2023/07/16 04:40:20;;;;;;;6.23;2.40;;;15.90;1.00;;;;;;5075972;28;20180;-43
2023/07/16 04:42:46;;;;;;;5.50;2.17;;;16.00;1.00;;;;;;5075932;28;20187;-42
2023/07/16 04:45:11;;;;;;;6.00;2.30;;;16.00;1.00;;;;;;5074860;28;20298;-42
2023/07/16 04:47:37;;;;;;;6.40;2.20;;;16.00;1.00;;;;;;5075893;28;20560;-44
2023/07/16 04:50:03;;;;;;;10.20;2.50;;;16.10;1.00;;;;;;5075528;28;20219;-40
2023/07/16 04:52:28;;;;;;;5.90;2.33;;;16.10;1.00;;;;;;5074130;28;20204;-42
2023/07/16 04:54:54;;;;;;;7.97;2.40;;;16.10;1.00;;;;;;5075831;28;20610;-42
2023/07/16 04:57:19;;;;;;;8.43;2.63;;;16.20;1.00;;;;;;5075467;28;20581;-43
2023/07/16 04:59:45;;;;;;;7.53;2.23;;;16.20;1.00;;;;;;5075459;28;20183;-42
2023/07/16 05:02:11;;;;;;;8.20;2.40;;;16.20;1.00;;;;;;5075439;28;20187;-42
2023/07/16 05:04:36;;;;;;;5.83;2.60;;;16.30;1.00;;;;;;5075548;28;20224;-44
2023/07/16 05:07:02;;;;;;;4.33;2.50;;;16.30;1.00;;;;;;5076104;28;20651;-42
2023/07/16 05:09:28;;;;;;;5.10;2.50;;;16.30;1.00;;;;;;5075861;28;20200;-42
2023/07/16 05:11:54;;;;;;;9.73;2.93;;;16.40;1.00;;;;;;5076837;28;20203;-43
2023/07/16 05:14:20;;;;;;;5.63;2.90;;;16.40;1.00;;;;;;5076548;28;20211;-42
2023/07/16 05:16:45;;;;;;;6.97;2.83;;;16.40;1.00;;;;;;5075520;28;20294;-39
2023/07/16 05:19:11;;;;;;;6.33;2.50;;;16.50;1.00;;;;;;5075272;28;20670;-40
2023/07/16 05:21:36;;;;;;;9.03;3.13;;;16.50;1.00;;;;;;5074941;28;20172;-41
2023/07/16 05:24:02;;;;;;;6.10;3.20;;;16.50;1.00;;;;;;5074914;28;20595;-41
2023/07/16 05:26:28;;;;;;;7.90;2.80;;;16.60;1.00;;;;;;5074833;28;20196;-39
2023/07/16 05:28:54;;;;;;;5.90;3.07;;;16.60;1.00;;;;;;5074760;28;20666;-41
2023/07/16 05:31:19;;;;;;;9.87;3.10;;;16.70;1.00;;;;;;5074632;28;20199;-44
2023/07/16 05:33:45;;;;;;;7.13;2.70;;;16.70;1.00;;;;;;5074710;28;20556;-40
2023/07/16 05:36:10;;;;;;;10.00;3.00;;;16.80;1.00;;;;;;5074626;28;20188;-42
2023/07/16 05:38:36;;;;;;;10.90;3.17;;;16.80;1.00;;;;;;5074551;28;20179;-41
2023/07/16 05:41:02;;;;;;;5.00;2.90;;;16.80;1.00;;;;;;5074449;28;20175;-42
2023/07/16 05:43:28;;;;;;;11.53;3.37;;;16.90;1.00;;;;;;5074369;28;20262;-40
2023/07/16 05:45:54;;;;;;;6.23;2.90;;;16.90;99.90;;;;;;5074884;28;20333;-41
2023/07/16 05:48:20;;;;;;;10.47;3.50;;;17.00;1.00;;;;;;5074559;28;20179;-42
2023/07/16 05:50:45;;;;;;;7.17;3.17;;;17.00;1.00;;;;;;5074524;28;20280;-41
2023/07/16 05:53:11;;;;;;;7.77;3.60;;;17.00;1.00;;;;;;5074163;28;20183;-44
2023/07/16 05:55:39;;;;;;;12.57;3.40;;;17.10;1.00;;;;;;5074293;28;20199;-42
2023/07/16 05:58:05;;;;;;;8.40;4.00;;;17.20;99.90;;;;;;5074399;28;20258;-42
2023/07/16 06:00:30;;;;;;;6.63;3.10;;;17.20;99.90;;;;;;5074128;28;20259;-40
2023/07/16 06:02:56;;;;;;;12.00;4.60;;;17.30;99.90;;;;;;5074323;28;20180;-42
2023/07/16 06:05:22;;;;;;;9.50;3.60;;;17.30;99.90;;;;;;5074089;28;20192;-42
2023/07/16 06:07:47;;;;;;;13.90;4.23;;;17.40;96.00;;;;;;5074269;28;20183;-40
2023/07/16 06:10:13;;;;;;;7.77;4.10;;;17.40;58.00;;;;;;5073760;28;20662;-43
2023/07/16 06:12:39;;;;;;;9.83;3.60;;;17.50;1.00;;;;;;5074074;28;20230;-40
2023/07/16 06:15:05;;;;;;;14.87;3.90;;;17.60;1.00;;;;;;5073815;28;20686;-43
2023/07/16 06:17:30;;;;;;;10.77;3.93;;;17.70;1.00;;;;;;5074044;28;20174;-38
2023/07/16 06:19:57;;;;;;;6.40;3.63;;;17.80;1.00;;;;;;5073908;28;20176;-42
2023/07/16 06:22:23;;;;;;;10.33;3.50;;;17.90;1.00;;;;;;5073684;28;20639;-42
2023/07/16 06:24:48;;;;;;;8.60;4.03;;;18.00;1.00;;;;;;5073890;28;20265;-40
2023/07/16 06:27:14;;;;;;;8.77;3.63;;;18.20;99.90;;;;;;5073651;28;20180;-41
2023/07/16 06:29:39;;;;;;;9.67;3.93;;;18.30;99.90;;;;;;5073839;28;20183;-42
2023/07/16 06:32:06;;;;;;;5.33;3.30;;;18.50;99.90;;;;;;5073825;28;20660;-41
2023/07/16 06:34:31;;;;;;;9.97;3.50;;;18.60;1.00;;;;;;5073637;28;20168;-41
2023/07/16 06:36:57;;;;;;;11.70;3.70;;;18.70;1.00;;;;;;5074046;28;20643;-42
2023/07/16 06:39:22;;;;;;;9.47;4.10;;;18.90;1.00;;;;;;5073465;28;20250;-40
2023/07/16 06:41:48;;;;;;;8.57;4.00;;;19.00;99.90;;;;;;5073407;28;20183;-39
2023/07/16 06:44:13;;;;;;;7.43;3.20;;;19.10;1.00;;;;;;5073709;28;20206;-40
2023/07/16 06:46:39;;;;;;;6.63;3.30;;;19.20;1.00;;;;;;5073308;28;20208;-40
2023/07/16 06:49:06;;;;;;;11.00;3.90;;;19.30;1.00;;;;;;5073595;28;20194;-42
2023/07/16 06:51:32;;;;;;;8.00;3.97;;;19.40;99.90;;;;;;5074109;28;20205;-43
2023/07/16 06:53:58;;;;;;;7.70;3.87;;;19.50;1.00;;;;;;5073370;28;20250;-38
2023/07/16 06:56:24;;;;;;;7.43;3.47;;;19.60;99.90;;;;;;5073229;28;20234;-42
2023/07/16 06:58:49;;;;;;;9.10;3.97;;;19.70;1.00;;;;;;5073474;28;20203;-41
2023/07/16 07:01:15;;;;;;;10.23;4.60;;;19.90;99.90;;;;;;5073348;28;20662;-42
2023/07/16 07:03:41;;;;;;;14.60;4.00;;;20.00;1.00;;;;;;5073503;28;20210;-42
2023/07/16 07:06:06;;;;;;;7.60;3.33;;;20.10;1.00;;;;;;5073079;28;20229;-41
2023/07/16 07:08:32;;;;;;;8.70;3.90;;;20.20;99.90;;;;;;5072561;28;20194;-41
2023/07/16 07:10:58;;;;;;;7.70;3.77;;;20.30;99.90;;;;;;5073357;28;20202;-43
2023/07/16 07:13:24;;;;;;;7.47;3.63;;;20.30;99.90;;;;;;5073217;28;20658;-43
2023/07/16 07:15:50;;;;;;;7.27;3.50;;;20.50;1.00;;;;;;5073044;28;20219;-40
2023/07/16 07:18:15;;;;;;;8.27;3.70;;;20.60;99.90;;;;;;5073220;28;20253;-44
2023/07/16 07:20:41;;;;;;;14.40;3.87;;;20.60;1.00;;;;;;5073043;28;20183;-42
2023/07/16 07:23:07;;;;;;;17.70;3.57;;;20.60;91.30;;;;;;5073403;28;20172;-43
2023/07/16 07:25:33;;;;;;;7.13;3.30;;;20.60;99.90;;;;;;5072919;28;20196;-42
2023/07/16 07:27:59;;;;;;;11.67;3.90;;;20.60;91.20;;;;;;5073283;28;20175;-41
2023/07/16 07:30:25;;;;;;;8.30;3.50;;;20.50;99.90;;;;;;5072928;28;20180;-42
2023/07/16 07:32:50;;;;;;;16.20;3.70;;;20.60;1.00;;;;;;5072866;28;20205;-42
2023/07/16 07:35:16;;;;;;;9.30;3.40;;;20.70;99.90;;;;;;5072860;28;20233;-43
2023/07/16 07:37:42;;;;;;;10.90;3.60;;;20.70;99.90;;;;;;5073223;28;20186;-43
2023/07/16 07:40:08;;;;;;;5.57;3.30;;;20.80;99.90;;;;;;5073122;28;20275;-43
2023/07/16 07:42:33;;;;;;;7.10;3.73;;;20.90;1.00;;;;;;5072898;28;20674;-44
2023/07/16 07:44:59;;;;;;;8.03;3.70;;;21.00;1.00;;;;;;5072694;28;20293;-41
2023/07/16 07:47:24;;;;;;;8.20;3.23;;;21.10;99.90;;;;;;5072753;28;20194;-43
2023/07/16 07:49:52;;;;;;;6.90;3.10;;;21.20;1.00;;;;;;5072720;28;20183;-43
2023/07/16 07:52:18;;;;;;;8.17;3.67;;;21.20;99.90;;;;;;5072902;28;20243;-43
2023/07/16 07:54:44;;;;;;;7.50;3.40;;;21.40;99.90;;;;;;5072707;28;20199;-43
2023/07/16 07:57:09;;;;;;;9.33;3.77;;;21.50;99.90;;;;;;5073279;28;20582;-42
2023/07/16 07:59:35;;;;;;;7.30;3.60;;;21.40;1.00;;;;;;5070913;28;20730;-43
2023/07/16 08:02:01;;;;;;;6.97;2.97;;;21.40;1.00;;;;;;5072355;28;20236;-42
2023/07/16 08:04:27;;;;;;;10.40;3.47;;;21.40;59.00;;;;;;5072958;28;20542;-44
2023/07/16 08:06:54;;;;;;;8.23;3.60;;;21.50;99.90;;;;;;5072979;28;20209;-43
2023/07/16 08:09:20;;;;;;;12.13;3.63;;;21.60;99.90;;;;;;5072894;28;20199;-43
2023/07/16 08:11:45;;;;;;;8.30;3.40;;;21.70;1.00;;;;;;5072511;28;20566;-42
2023/07/16 08:14:11;;;;;;;11.90;3.40;;;21.80;1.00;;;;;;5072671;28;20545;-42
2023/07/16 08:16:36;;;;;;;7.00;3.40;;;22.00;1.00;;;;;;5072721;28;20207;-41
2023/07/16 08:19:02;;;;;;;5.30;3.37;;;22.20;99.90;;;;;;5073083;28;20283;-41
2023/07/16 08:21:28;;;;;;;5.37;3.40;;;22.40;1.00;;;;;;5076396;28;20210;-42
2023/07/16 08:23:53;;;;;;;7.03;3.40;;;22.40;1.00;;;;;;5074803;28;20266;-43
2023/07/16 08:26:19;;;;;;;6.33;3.63;;;22.40;99.90;;;;;;5075882;28;20196;-42
2023/07/16 08:28:45;;;;;;;13.33;3.60;;;22.40;99.90;;;;;;5077608;28;20193;-44
2023/07/16 08:31:12;;;;;;;6.27;2.87;;;22.50;84.30;;;;;;5075981;28;20252;-42
2023/07/16 08:33:38;;;;;;;7.40;2.87;;;22.60;1.00;;;;;;5076014;28;20233;-42
2023/07/16 08:36:04;;;;;;;8.83;3.57;;;22.60;1.00;;;;;;5075793;28;20188;-41
2023/07/16 08:38:30;;;;;;;4.70;3.43;;;22.60;99.90;;;;;;5075902;28;20245;-40
2023/07/16 08:40:55;;;;;;;9.83;3.50;;;22.60;1.00;;;;;;5075777;28;20279;-43
2023/07/16 08:43:22;;;;;;;5.27;3.03;;;22.50;1.00;;;;;;5075856;28;20186;-43
2023/07/16 08:45:49;;;;;;;5.33;3.30;;;22.50;99.90;;;;;;5075716;28;20636;-43
2023/07/16 08:48:17;;;;;;;5.60;3.03;;;22.50;1.00;;;;;;5076114;28;20191;-41
2023/07/16 08:50:46;;;;;;;9.50;3.20;;;22.40;1.00;;;;;;5076062;28;20187;-43
2023/07/16 08:53:13;;;;;;;8.53;3.17;;;22.50;99.90;;;;;;5075880;28;20175;-42
2023/07/16 08:55:38;;;;;;;7.77;3.70;;;22.40;1.00;;;;;;5075788;28;20191;-42
2023/07/16 08:58:05;;;;;;;6.47;2.87;;;22.40;1.00;;;;;;5075480;28;20172;-44
2023/07/16 09:00:31;;;;;;;5.23;2.60;;;22.40;1.00;;;;;;5075450;28;20199;-44
2023/07/16 09:02:57;;;;;;;4.23;2.87;;;22.40;99.90;;;;;;5074074;28;20179;-43
2023/07/16 09:05:23;;;;;;;6.70;2.97;;;22.60;99.90;;;;;;5075290;28;20235;-43
2023/07/16 09:07:49;;;;;;;5.43;2.80;;;22.80;1.00;;;;;;5075548;28;20172;-41
2023/07/16 09:10:15;;;;;;;7.67;3.20;;;23.00;1.00;;;;;;5075175;28;20195;-43
2023/07/16 09:12:45;;;;;;;8.53;3.23;;;23.20;1.00;;;;;;5075095;28;20808;-42
2023/07/16 09:15:13;;;;;;;5.90;2.83;;;23.20;99.90;;;;;;5075299;28;20203;-43
2023/07/16 09:17:39;;;;;;;7.67;3.40;;;23.20;99.90;;;;;;5075073;28;20176;-42
2023/07/16 09:20:06;;;;;;;7.43;2.73;;;23.20;1.00;;;;;;5075453;28;20264;-42
2023/07/16 09:22:33;;;;;;;6.30;3.33;;;23.20;1.00;;;;;;5074953;28;20222;-44
2023/07/16 09:25:00;;;;;;;4.73;2.87;;;23.30;99.90;;;;;;5074728;28;20199;-41
2023/07/16 09:27:30;;;;;;;7.77;3.20;;;23.40;1.00;;;;;;5074909;28;20254;-44
2023/07/16 09:29:56;;;;;;;7.70;3.50;;;23.40;1.00;;;;;;5074237;28;20176;-43
2023/07/16 09:32:21;;;;;;;6.53;3.27;;;23.40;1.00;;;;;;5074698;28;20668;-43
2023/07/16 09:34:50;;;;;;;10.30;3.30;;;23.50;1.00;;;;;;5074748;28;20259;-43
2023/07/16 09:37:17;;;;;;;4.27;2.90;;;23.60;1.00;;;;;;5074664;28;20191;-43
2023/07/16 09:39:45;;;;;;;4.10;2.57;;;23.70;57.70;;;;;;5074892;28;20199;-42
2023/07/16 09:42:11;;;;;;;11.20;3.27;;;23.70;1.00;;;;;;5074521;28;20179;-42
2023/07/16 09:44:37;;;;;;;10.20;3.23;;;23.70;1.00;;;;;;5074944;28;20179;-43
2023/07/16 09:47:02;;;;;;;7.43;2.50;;;23.80;99.90;;;;;;5074697;28;20179;-41
2023/07/16 09:49:30;;;;;;;7.47;2.90;;;24.00;40.80;;;;;;5074784;28;20172;-43
2023/07/16 09:51:57;;;;;;;4.37;2.63;;;24.10;1.00;;;;;;5074334;28;20195;-43
2023/07/16 09:54:25;;;;;;;7.10;3.13;;;24.20;1.00;;;;;;5074609;28;20175;-43
2023/07/16 09:56:55;;;;;;;4.40;2.97;;;24.40;1.00;;;;;;5074294;28;20187;-41
2023/07/16 09:59:24;;;;;;;8.63;2.87;;;24.50;1.00;;;;;;5074559;28;20617;-43
2023/07/16 10:01:51;;;;;;;4.93;2.70;;;24.70;1.00;;;;;;5074343;28;20202;-42
2023/07/16 10:04:19;;;;;;;4.83;3.17;;;24.70;99.90;;;;;;5074404;28;20578;-43
2023/07/16 10:06:59;;;;;;;6.70;2.70;;;24.70;99.90;;;;;;5073927;28;20220;-45
2023/07/16 10:09:42;;;;;;;8.57;2.90;;;24.70;91.00;;;;;;5073887;28;20245;-44
2023/07/16 10:12:14;;;;;;;4.90;2.50;;;24.80;99.90;;;;;;5072590;28;20293;-44
2023/07/16 10:14:56;;;;;;;4.07;2.57;;;25.00;99.90;;;;;;5074114;28;20202;-43
2023/07/16 10:17:24;;;;;;;2.73;2.00;;;25.10;99.90;;;;;;5074251;28;20527;-44
2023/07/16 10:20:03;;;;;;;4.27;2.47;;;25.20;1.00;;;;;;5074071;28;20625;-44
2023/07/16 10:22:42;;;;;;;5.83;2.70;;;25.20;99.90;;;;;;5074048;28;20574;-44
2023/07/16 10:25:17;;;;;;;7.33;3.00;;;25.10;99.90;;;;;;5073940;28;20203;-44
2023/07/16 10:27:43;;;;;;;4.27;2.77;;;25.00;99.90;;;;;;5073957;28;20205;-43
2023/07/16 10:30:09;;;;;;;5.67;3.00;;;24.90;99.90;;;;;;5073930;28;20271;-44
2023/07/16 10:32:34;;;;;;;5.43;2.60;;;24.80;99.90;;;;;;5073533;28;20278;-44
2023/07/16 10:35:01;;;;;;;6.10;2.53;;;24.80;99.90;;;;;;5073523;28;20687;-43
2023/07/16 10:37:27;;;;;;;7.37;3.17;;;24.80;1.00;;;;;;5073692;28;20254;-43
2023/07/16 10:39:55;;;;;;;4.93;2.90;;;24.90;99.90;;;;;;5073614;28;20163;-42
2023/07/16 10:42:22;;;;;;;3.97;2.03;;;24.80;99.90;;;;;;5072834;28;20656;-43
2023/07/16 10:44:54;;;;;;;4.97;2.83;;;24.70;99.90;;;;;;5074071;28;20233;-42
2023/07/16 10:47:38;;;;;;;5.23;2.33;;;24.70;99.90;;;;;;5073519;28;20175;-43
2023/07/16 10:50:09;;;;;;;3.70;2.60;;;24.80;99.90;;;;;;5074320;28;20506;-43
2023/07/16 10:52:35;;;;;;;5.33;2.80;;;25.20;99.90;;;;;;5074506;28;20195;-43
2023/07/16 10:55:01;;;;;;;7.40;2.70;;;25.30;1.00;;;;;;5074889;28;20203;-44
2023/07/16 10:57:28;;;;;;;6.27;2.70;;;25.20;99.90;;;;;;5075733;28;20175;-44
2023/07/16 10:59:56;;;;;;;4.53;2.67;;;25.10;1.00;;;;;;5073828;28;20180;-42
2023/07/16 11:02:23;;;;;;;4.03;2.50;;;25.10;90.80;;;;;;5073741;28;20263;-41
2023/07/16 11:04:50;;;;;;;4.93;2.30;;;25.10;99.90;;;;;;5073426;28;20203;-44
2023/07/16 11:07:16;;;;;;;5.30;2.13;;;25.00;72.70;;;;;;5072987;28;20207;-43
2023/07/16 11:09:48;;;;;;;3.80;2.63;;;24.90;1.00;;;;;;5073428;28;20278;-43
2023/07/16 11:12:16;;;;;;;12.37;3.30;;;24.80;42.80;;;;;;5073487;28;20261;-43
2023/07/16 11:14:46;;;;;;;4.77;2.73;;;24.70;99.90;;;;;;5073346;28;20175;-44
2023/07/16 11:17:13;;;;;;;4.07;2.47;;;24.80;99.90;;;;;;5073764;28;20164;-43
2023/07/16 11:19:39;;;;;;;4.00;2.30;;;24.80;99.90;;;;;;5073336;28;20163;-43
2023/07/16 11:22:07;;;;;;;4.03;2.20;;;24.90;99.90;;;;;;5073579;28;20176;-43
2023/07/16 11:24:44;;;;;;;4.63;2.60;;;24.90;1.00;;;;;;5073206;28;20699;-43
2023/07/16 11:27:17;;;;;;;5.63;2.60;;;25.10;86.90;;;;;;5072297;28;20615;-42
2023/07/16 11:29:56;;;;;;;5.53;2.57;;;25.10;1.00;;;;;;5073572;28;20187;-44
2023/07/16 11:32:36;;;;;;;5.70;2.33;;;25.10;99.90;;;;;;5073764;28;20191;-44
2023/07/16 11:35:04;;;;;;;6.60;2.53;;;25.10;13.50;;;;;;5073570;28;20187;-43
2023/07/16 11:37:32;;;;;;;5.80;2.77;;;25.10;2.40;;;;;;5073402;28;20211;-44
2023/07/16 11:40:00;;;;;;;3.80;2.30;;;25.10;65.80;;;;;;5075682;28;20240;-44
2023/07/16 11:42:29;;;;;;;4.33;2.50;;;25.10;1.00;;;;;;5073909;28;20351;-44
2023/07/16 11:44:55;;;;;;;8.30;2.77;;;25.10;1.00;;;;;;5075594;28;20196;-44
2023/07/16 11:47:21;;;;;;;4.27;2.50;;;25.10;1.00;;;;;;5075121;28;20202;-44
2023/07/16 11:49:48;;;;;;;4.70;2.50;;;25.30;24.00;;;;;;5074565;28;20668;-44
2023/07/16 11:52:13;;;;;;;5.57;2.78;;;25.30;1.00;;;;;;5075248;28;20218;-44
2023/07/16 11:54:39;;;;;;;5.33;2.80;;;25.40;1.00;;;;;;5080537;28;20180;-45
2023/07/16 11:57:05;;;;;;;4.60;2.47;;;25.40;29.10;;;;;;5079709;28;20180;-44
2023/07/16 11:59:31;;;;;;;4.87;2.60;;;25.50;1.00;;;;;;5078259;28;20651;-43
2023/07/16 12:01:56;;;;;;;3.23;2.33;;;25.50;1.00;;;;;;5077517;28;20246;-43
2023/07/16 12:04:22;;;;;;;9.57;2.23;;;25.70;1.00;;;;;;5076966;28;20199;-44
2023/07/16 12:06:48;;;;;;;6.23;2.20;;;25.80;1.00;;;;;;5076375;28;20195;-43
2023/07/16 12:09:14;;;;;;;3.30;2.27;;;25.70;1.00;;;;;;5076443;28;20211;-43
2023/07/16 12:11:39;;;;;;;4.67;2.70;;;25.60;1.00;;;;;;5076444;28;20298;-43
2023/07/16 12:14:06;;;;;;;3.73;2.50;;;25.60;1.00;;;;;;5076502;28;20175;-43
2023/07/16 12:16:32;;;;;;;5.07;2.60;;;25.60;1.00;;;;;;5076406;28;20560;-43
2023/07/16 12:18:57;;;;;;;4.87;2.50;;;25.60;1.00;;;;;;5076514;28;20258;-42
2023/07/16 12:21:23;;;;;;;2.70;2.10;;;25.60;1.00;;;;;;5076209;28;20526;-43
2023/07/16 12:23:48;;;;;;;5.97;2.73;;;25.60;1.00;;;;;;5076198;28;20168;-44
2023/07/16 12:26:14;;;;;;;3.70;2.30;;;25.60;1.00;;;;;;5076075;28;20219;-44
2023/07/16 12:28:40;;;;;;;7.20;2.73;;;25.60;1.00;;;;;;5076010;28;20223;-43
2023/07/16 12:31:05;;;;;;;4.53;2.20;;;25.60;1.00;;;;;;5075851;28;20305;-43
2023/07/16 12:33:31;;;;;;;4.37;2.63;;;25.80;1.00;;;;;;5076092;28;20179;-43
2023/07/16 12:35:57;;;;;;;7.85;2.67;;;26.00;1.00;;;;;;5074616;28;20237;-43
2023/07/16 12:38:22;;;;;;;5.68;2.13;;;26.10;1.00;;;;;;5075867;28;20200;-42
2023/07/16 12:40:48;;;;;;;6.47;2.63;;;26.00;1.00;;;;;;5076035;28;20640;-42
2023/07/16 12:43:14;;;;;;;3.20;2.40;;;26.00;1.00;;;;;;5075893;28;20636;-43
2023/07/16 12:45:39;;;;;;;5.17;2.00;;;25.90;1.00;;;;;;5077790;28;20300;-44
2023/07/16 12:48:05;;;;;;;4.65;2.35;;;25.80;1.00;;;;;;5077476;28;20168;-42
2023/07/16 12:50:31;;;;;;;2.87;1.83;;;25.80;1.00;;;;;;5076670;28;20171;-43
2023/07/16 12:52:57;;;;;;;3.10;2.17;;;25.90;1.00;;;;;;5077392;28;20203;-42